sensor_id;sensor_type;location;lat;lon;timestamp;P1;durP1;ratioP1;P2;durP2;ratioP2
16634;SDS011;8431;52.458;9.998;2023-05-07T00:00:15;20.00;;;16.40;;
16634;SDS011;8431;52.458;9.998;2023-05-07T00:02:44;17.17;;;15.38;;
16634;SDS011;8431;52.458;9.998;2023-05-07T00:05:11;17.48;;;15.57;;
16634;SDS011;8431;52.458;9.998;2023-05-07T00:07:38;19.02;;;16.48;;
16634;SDS011;8431;52.458;9.998;2023-05-07T00:10:05;20.42;;;15.60;;
16634;SDS011;8431;52.458;9.998;2023-05-07T00:12:33;17.83;;;15.93;;
16634;SDS011;8431;52.458;9.998;2023-05-07T00:15:00;17.73;;;15.93;;
16634;SDS011;8431;52.458;9.998;2023-05-07T00:17:29;19.67;;;17.23;;
16634;SDS011;8431;52.458;9.998;2023-05-07T00:19:56;17.58;;;15.77;;
16634;SDS011;8431;52.458;9.998;2023-05-07T00:22:23;18.25;;;16.30;;
16634;SDS011;8431;52.458;9.998;2023-05-07T00:24:50;17.00;;;15.30;;
16634;SDS011;8431;52.458;9.998;2023-05-07T00:27:20;19.40;;;16.25;;
16634;SDS011;8431;52.458;9.998;2023-05-07T00:29:47;17.67;;;15.82;;
16634;SDS011;8431;52.458;9.998;2023-05-07T00:32:14;19.23;;;17.10;;
16634;SDS011;8431;52.458;9.998;2023-05-07T00:34:43;19.95;;;16.50;;
16634;SDS011;8431;52.458;9.998;2023-05-07T00:37:10;18.98;;;16.98;;
16634;SDS011;8431;52.458;9.998;2023-05-07T00:39:37;18.95;;;16.88;;
16634;SDS011;8431;52.458;9.998;2023-05-07T00:42:04;18.55;;;16.65;;
16634;SDS011;8431;52.458;9.998;2023-05-07T00:44:31;18.13;;;16.15;;
16634;SDS011;8431;52.458;9.998;2023-05-07T00:46:58;19.90;;;17.52;;
16634;SDS011;8431;52.458;9.998;2023-05-07T00:49:31;20.23;;;17.58;;
16634;SDS011;8431;52.458;9.998;2023-05-07T00:52:05;20.63;;;17.48;;
16634;SDS011;8431;52.458;9.998;2023-05-07T00:54:33;22.45;;;17.67;;
16634;SDS011;8431;52.458;9.998;2023-05-07T00:57:01;18.15;;;16.25;;
16634;SDS011;8431;52.458;9.998;2023-05-07T00:59:29;19.52;;;16.75;;
16634;SDS011;8431;52.458;9.998;2023-05-07T01:01:57;19.13;;;17.00;;
16634;SDS011;8431;52.458;9.998;2023-05-07T01:04:25;18.60;;;16.60;;
16634;SDS011;8431;52.458;9.998;2023-05-07T01:06:53;19.98;;;17.00;;
16634;SDS011;8431;52.458;9.998;2023-05-07T01:09:24;23.88;;;17.15;;
16634;SDS011;8431;52.458;9.998;2023-05-07T01:11:52;19.27;;;16.50;;
16634;SDS011;8431;52.458;9.998;2023-05-07T01:14:20;21.17;;;17.23;;
16634;SDS011;8431;52.458;9.998;2023-05-07T01:16:47;19.00;;;16.40;;
16634;SDS011;8431;52.458;9.998;2023-05-07T01:19:16;19.75;;;17.40;;
16634;SDS011;8431;52.458;9.998;2023-05-07T01:21:46;21.10;;;18.23;;
16634;SDS011;8431;52.458;9.998;2023-05-07T01:24:15;20.65;;;16.80;;
16634;SDS011;8431;52.458;9.998;2023-05-07T01:26:43;20.77;;;17.73;;
16634;SDS011;8431;52.458;9.998;2023-05-07T01:29:10;20.95;;;18.00;;
16634;SDS011;8431;52.458;9.998;2023-05-07T01:31:37;23.70;;;18.65;;
16634;SDS011;8431;52.458;9.998;2023-05-07T01:34:06;22.90;;;18.75;;
16634;SDS011;8431;52.458;9.998;2023-05-07T01:36:36;19.80;;;17.58;;
16634;SDS011;8431;52.458;9.998;2023-05-07T01:39:05;23.50;;;18.42;;
16634;SDS011;8431;52.458;9.998;2023-05-07T01:41:34;21.38;;;18.30;;
16634;SDS011;8431;52.458;9.998;2023-05-07T01:44:02;21.35;;;18.27;;
16634;SDS011;8431;52.458;9.998;2023-05-07T01:46:30;21.90;;;18.08;;
16634;SDS011;8431;52.458;9.998;2023-05-07T01:48:59;22.00;;;18.17;;
16634;SDS011;8431;52.458;9.998;2023-05-07T01:51:26;20.75;;;18.45;;
16634;SDS011;8431;52.458;9.998;2023-05-07T01:53:53;19.20;;;17.00;;
16634;SDS011;8431;52.458;9.998;2023-05-07T01:56:20;21.40;;;17.27;;
16634;SDS011;8431;52.458;9.998;2023-05-07T01:58:49;19.20;;;16.67;;
16634;SDS011;8431;52.458;9.998;2023-05-07T02:01:17;19.65;;;16.02;;
16634;SDS011;8431;52.458;9.998;2023-05-07T02:03:44;17.20;;;15.35;;
16634;SDS011;8431;52.458;9.998;2023-05-07T02:06:11;16.73;;;14.27;;
16634;SDS011;8431;52.458;9.998;2023-05-07T02:08:38;15.90;;;14.30;;
16634;SDS011;8431;52.458;9.998;2023-05-07T02:11:05;15.57;;;13.80;;
16634;SDS011;8431;52.458;9.998;2023-05-07T02:13:33;15.85;;;14.25;;
16634;SDS011;8431;52.458;9.998;2023-05-07T02:16:02;14.30;;;12.82;;
16634;SDS011;8431;52.458;9.998;2023-05-07T02:18:29;15.05;;;13.45;;
16634;SDS011;8431;52.458;9.998;2023-05-07T02:20:56;15.02;;;13.02;;
16634;SDS011;8431;52.458;9.998;2023-05-07T02:23:23;12.85;;;11.55;;
16634;SDS011;8431;52.458;9.998;2023-05-07T02:25:50;14.52;;;12.32;;
16634;SDS011;8431;52.458;9.998;2023-05-07T02:28:17;15.75;;;12.73;;
16634;SDS011;8431;52.458;9.998;2023-05-07T02:30:44;13.90;;;12.50;;
16634;SDS011;8431;52.458;9.998;2023-05-07T02:33:13;14.73;;;12.25;;
16634;SDS011;8431;52.458;9.998;2023-05-07T02:35:41;13.55;;;12.10;;
16634;SDS011;8431;52.458;9.998;2023-05-07T02:38:08;13.00;;;11.02;;
16634;SDS011;8431;52.458;9.998;2023-05-07T02:40:35;13.25;;;11.95;;
16634;SDS011;8431;52.458;9.998;2023-05-07T02:43:05;12.35;;;11.20;;
16634;SDS011;8431;52.458;9.998;2023-05-07T02:45:32;12.40;;;11.15;;
16634;SDS011;8431;52.458;9.998;2023-05-07T02:47:59;12.70;;;11.50;;
16634;SDS011;8431;52.458;9.998;2023-05-07T02:50:27;12.45;;;11.25;;
16634;SDS011;8431;52.458;9.998;2023-05-07T02:52:54;12.15;;;10.93;;
16634;SDS011;8431;52.458;9.998;2023-05-07T02:55:21;11.40;;;10.18;;
16634;SDS011;8431;52.458;9.998;2023-05-07T02:57:48;11.48;;;10.38;;
16634;SDS011;8431;52.458;9.998;2023-05-07T03:00:16;11.35;;;10.20;;
16634;SDS011;8431;52.458;9.998;2023-05-07T03:02:44;12.00;;;10.80;;
16634;SDS011;8431;52.458;9.998;2023-05-07T03:05:11;11.20;;;10.20;;
16634;SDS011;8431;52.458;9.998;2023-05-07T03:07:40;11.27;;;10.18;;
16634;SDS011;8431;52.458;9.998;2023-05-07T03:10:10;11.10;;;10.00;;
16634;SDS011;8431;52.458;9.998;2023-05-07T03:12:37;10.93;;;9.30;;
16634;SDS011;8431;52.458;9.998;2023-05-07T03:15:04;10.43;;;9.32;;
16634;SDS011;8431;52.458;9.998;2023-05-07T03:17:33;10.25;;;9.25;;
16634;SDS011;8431;52.458;9.998;2023-05-07T03:20:00;9.75;;;8.85;;
16634;SDS011;8431;52.458;9.998;2023-05-07T03:22:27;10.20;;;9.20;;
16634;SDS011;8431;52.458;9.998;2023-05-07T03:24:55;9.07;;;8.27;;
16634;SDS011;8431;52.458;9.998;2023-05-07T03:27:22;9.65;;;8.85;;
16634;SDS011;8431;52.458;9.998;2023-05-07T03:29:49;10.75;;;9.75;;
16634;SDS011;8431;52.458;9.998;2023-05-07T03:32:17;10.07;;;9.18;;
16634;SDS011;8431;52.458;9.998;2023-05-07T03:34:44;10.43;;;9.52;;
16634;SDS011;8431;52.458;9.998;2023-05-07T03:37:10;13.10;;;10.07;;
16634;SDS011;8431;52.458;9.998;2023-05-07T03:39:37;10.43;;;9.38;;
16634;SDS011;8431;52.458;9.998;2023-05-07T03:42:06;10.93;;;9.77;;
16634;SDS011;8431;52.458;9.998;2023-05-07T03:44:33;10.60;;;9.38;;
16634;SDS011;8431;52.458;9.998;2023-05-07T03:47:01;10.43;;;9.40;;
16634;SDS011;8431;52.458;9.998;2023-05-07T03:49:28;10.77;;;9.68;;
16634;SDS011;8431;52.458;9.998;2023-05-07T03:51:55;10.70;;;9.65;;
16634;SDS011;8431;52.458;9.998;2023-05-07T03:54:22;11.05;;;10.00;;
16634;SDS011;8431;52.458;9.998;2023-05-07T03:56:49;10.20;;;9.27;;
16634;SDS011;8431;52.458;9.998;2023-05-07T03:59:18;10.80;;;9.80;;
16634;SDS011;8431;52.458;9.998;2023-05-07T04:01:45;11.05;;;9.75;;
16634;SDS011;8431;52.458;9.998;2023-05-07T04:04:12;10.98;;;9.82;;
16634;SDS011;8431;52.458;9.998;2023-05-07T04:06:39;10.48;;;9.52;;
16634;SDS011;8431;52.458;9.998;2023-05-07T04:09:06;10.32;;;9.32;;
16634;SDS011;8431;52.458;9.998;2023-05-07T04:11:33;11.10;;;9.98;;
16634;SDS011;8431;52.458;9.998;2023-05-07T04:14:01;10.63;;;9.57;;
16634;SDS011;8431;52.458;9.998;2023-05-07T04:16:29;11.35;;;10.32;;
16634;SDS011;8431;52.458;9.998;2023-05-07T04:18:56;10.82;;;9.73;;
16634;SDS011;8431;52.458;9.998;2023-05-07T04:21:23;11.07;;;9.88;;
16634;SDS011;8431;52.458;9.998;2023-05-07T04:23:51;10.82;;;9.73;;
16634;SDS011;8431;52.458;9.998;2023-05-07T04:26:18;9.63;;;8.73;;
16634;SDS011;8431;52.458;9.998;2023-05-07T04:28:46;10.43;;;9.32;;
16634;SDS011;8431;52.458;9.998;2023-05-07T04:31:13;10.10;;;9.18;;
16634;SDS011;8431;52.458;9.998;2023-05-07T04:33:41;9.20;;;8.38;;
16634;SDS011;8431;52.458;9.998;2023-05-07T04:36:08;10.52;;;9.43;;
16634;SDS011;8431;52.458;9.998;2023-05-07T04:38:35;10.98;;;9.98;;
16634;SDS011;8431;52.458;9.998;2023-05-07T04:41:04;10.80;;;9.77;;
16634;SDS011;8431;52.458;9.998;2023-05-07T04:43:32;11.70;;;10.60;;
16634;SDS011;8431;52.458;9.998;2023-05-07T04:45:59;12.13;;;11.00;;
16634;SDS011;8431;52.458;9.998;2023-05-07T04:48:26;11.98;;;10.85;;
16634;SDS011;8431;52.458;9.998;2023-05-07T04:50:55;11.50;;;10.40;;
16634;SDS011;8431;52.458;9.998;2023-05-07T04:53:22;11.50;;;10.40;;
16634;SDS011;8431;52.458;9.998;2023-05-07T04:55:54;12.32;;;11.20;;
16634;SDS011;8431;52.458;9.998;2023-05-07T04:58:22;11.75;;;10.55;;
16634;SDS011;8431;52.458;9.998;2023-05-07T05:00:50;10.93;;;10.02;;
16634;SDS011;8431;52.458;9.998;2023-05-07T05:03:17;11.23;;;10.23;;
16634;SDS011;8431;52.458;9.998;2023-05-07T05:05:44;10.90;;;9.90;;
16634;SDS011;8431;52.458;9.998;2023-05-07T05:08:12;12.65;;;11.55;;
16634;SDS011;8431;52.458;9.998;2023-05-07T05:10:39;11.10;;;10.10;;
16634;SDS011;8431;52.458;9.998;2023-05-07T05:13:08;10.93;;;10.02;;
16634;SDS011;8431;52.458;9.998;2023-05-07T05:15:37;10.85;;;9.95;;
16634;SDS011;8431;52.458;9.998;2023-05-07T05:18:04;9.93;;;9.13;;
16634;SDS011;8431;52.458;9.998;2023-05-07T05:20:31;10.02;;;9.23;;
16634;SDS011;8431;52.458;9.998;2023-05-07T05:22:58;9.75;;;8.85;;
16634;SDS011;8431;52.458;9.998;2023-05-07T05:25:26;9.98;;;9.18;;
16634;SDS011;8431;52.458;9.998;2023-05-07T05:27:53;9.80;;;8.90;;
16634;SDS011;8431;52.458;9.998;2023-05-07T05:30:20;10.57;;;9.57;;
16634;SDS011;8431;52.458;9.998;2023-05-07T05:32:47;10.05;;;9.25;;
16634;SDS011;8431;52.458;9.998;2023-05-07T05:35:14;10.02;;;9.23;;
16634;SDS011;8431;52.458;9.998;2023-05-07T05:37:41;9.88;;;9.07;;
16634;SDS011;8431;52.458;9.998;2023-05-07T05:40:09;10.20;;;9.40;;
16634;SDS011;8431;52.458;9.998;2023-05-07T05:42:38;10.57;;;9.68;;
16634;SDS011;8431;52.458;9.998;2023-05-07T05:45:05;10.05;;;9.25;;
16634;SDS011;8431;52.458;9.998;2023-05-07T05:47:33;9.85;;;9.02;;
16634;SDS011;8431;52.458;9.998;2023-05-07T05:50:00;10.18;;;9.27;;
16634;SDS011;8431;52.458;9.998;2023-05-07T05:52:33;11.13;;;10.02;;
16634;SDS011;8431;52.458;9.998;2023-05-07T05:55:00;10.50;;;9.60;;
16634;SDS011;8431;52.458;9.998;2023-05-07T05:57:27;9.45;;;8.65;;
16634;SDS011;8431;52.458;9.998;2023-05-07T05:59:55;9.68;;;8.80;;
16634;SDS011;8431;52.458;9.998;2023-05-07T06:02:23;9.38;;;8.68;;
16634;SDS011;8431;52.458;9.998;2023-05-07T06:04:50;9.68;;;8.98;;
16634;SDS011;8431;52.458;9.998;2023-05-07T06:07:17;10.23;;;9.32;;
16634;SDS011;8431;52.458;9.998;2023-05-07T06:09:44;10.13;;;9.32;;
16634;SDS011;8431;52.458;9.998;2023-05-07T06:12:11;9.57;;;8.80;;
16634;SDS011;8431;52.458;9.998;2023-05-07T06:14:38;9.18;;;8.38;;
16634;SDS011;8431;52.458;9.998;2023-05-07T06:17:07;9.35;;;8.45;;
16634;SDS011;8431;52.458;9.998;2023-05-07T06:19:34;9.43;;;8.73;;
16634;SDS011;8431;52.458;9.998;2023-05-07T06:22:01;9.80;;;9.05;;
16634;SDS011;8431;52.458;9.998;2023-05-07T06:24:28;10.10;;;9.30;;
16634;SDS011;8431;52.458;9.998;2023-05-07T06:26:55;10.10;;;9.30;;
16634;SDS011;8431;52.458;9.998;2023-05-07T06:29:23;8.90;;;8.30;;
16634;SDS011;8431;52.458;9.998;2023-05-07T06:31:51;9.00;;;8.30;;
16634;SDS011;8431;52.458;9.998;2023-05-07T06:34:19;9.90;;;9.10;;
16634;SDS011;8431;52.458;9.998;2023-05-07T06:36:46;9.95;;;9.05;;
16634;SDS011;8431;52.458;9.998;2023-05-07T06:39:13;9.52;;;8.82;;
16634;SDS011;8431;52.458;9.998;2023-05-07T06:41:40;9.65;;;8.95;;
16634;SDS011;8431;52.458;9.998;2023-05-07T06:44:07;9.73;;;8.93;;
16634;SDS011;8431;52.458;9.998;2023-05-07T06:46:34;10.50;;;9.70;;
16634;SDS011;8431;52.458;9.998;2023-05-07T06:49:01;10.00;;;9.20;;
16634;SDS011;8431;52.458;9.998;2023-05-07T06:51:29;10.32;;;9.63;;
16634;SDS011;8431;52.458;9.998;2023-05-07T06:53:56;10.52;;;9.73;;
16634;SDS011;8431;52.458;9.998;2023-05-07T06:56:23;10.55;;;9.73;;
16634;SDS011;8431;52.458;9.998;2023-05-07T06:58:50;10.23;;;9.43;;
16634;SDS011;8431;52.458;9.998;2023-05-07T07:01:20;10.65;;;9.85;;
16634;SDS011;8431;52.458;9.998;2023-05-07T07:03:47;11.05;;;10.23;;
16634;SDS011;8431;52.458;9.998;2023-05-07T07:06:16;10.93;;;10.13;;
16634;SDS011;8431;52.458;9.998;2023-05-07T07:08:45;10.43;;;9.63;;
16634;SDS011;8431;52.458;9.998;2023-05-07T07:11:12;11.77;;;10.88;;
16634;SDS011;8431;52.458;9.998;2023-05-07T07:13:39;11.27;;;10.45;;
16634;SDS011;8431;52.458;9.998;2023-05-07T07:16:06;12.00;;;11.07;;
16634;SDS011;8431;52.458;9.998;2023-05-07T07:18:34;11.77;;;10.73;;
16634;SDS011;8431;52.458;9.998;2023-05-07T07:21:13;11.98;;;11.05;;
16634;SDS011;8431;52.458;9.998;2023-05-07T07:23:40;11.35;;;10.43;;
16634;SDS011;8431;52.458;9.998;2023-05-07T07:26:08;11.23;;;10.32;;
16634;SDS011;8431;52.458;9.998;2023-05-07T07:28:41;11.00;;;10.10;;
16634;SDS011;8431;52.458;9.998;2023-05-07T07:31:08;10.95;;;10.15;;
16634;SDS011;8431;52.458;9.998;2023-05-07T07:33:36;11.23;;;10.35;;
16634;SDS011;8431;52.458;9.998;2023-05-07T07:36:03;10.70;;;9.90;;
16634;SDS011;8431;52.458;9.998;2023-05-07T07:38:31;9.70;;;8.90;;
16634;SDS011;8431;52.458;9.998;2023-05-07T07:40:58;10.25;;;9.48;;
16634;SDS011;8431;52.458;9.998;2023-05-07T07:43:27;10.10;;;9.40;;
16634;SDS011;8431;52.458;9.998;2023-05-07T07:45:54;9.50;;;8.90;;
16634;SDS011;8431;52.458;9.998;2023-05-07T07:48:20;8.90;;;8.27;;
16634;SDS011;8431;52.458;9.998;2023-05-07T07:50:48;10.10;;;9.38;;
16634;SDS011;8431;52.458;9.998;2023-05-07T07:53:16;10.88;;;9.93;;
16634;SDS011;8431;52.458;9.998;2023-05-07T07:55:44;10.13;;;9.43;;
16634;SDS011;8431;52.458;9.998;2023-05-07T07:58:11;9.98;;;9.18;;
16634;SDS011;8431;52.458;9.998;2023-05-07T08:00:39;10.20;;;9.40;;
16634;SDS011;8431;52.458;9.998;2023-05-07T08:03:08;9.35;;;8.70;;
16634;SDS011;8431;52.458;9.998;2023-05-07T08:05:36;9.52;;;8.82;;
16634;SDS011;8431;52.458;9.998;2023-05-07T08:08:04;10.05;;;9.35;;
16634;SDS011;8431;52.458;9.998;2023-05-07T08:10:31;10.50;;;9.48;;
16634;SDS011;8431;52.458;9.998;2023-05-07T08:13:00;10.55;;;9.75;;
16634;SDS011;8431;52.458;9.998;2023-05-07T08:15:28;10.63;;;9.82;;
16634;SDS011;8431;52.458;9.998;2023-05-07T08:17:57;10.13;;;9.43;;
16634;SDS011;8431;52.458;9.998;2023-05-07T08:20:25;10.45;;;9.75;;
16634;SDS011;8431;52.458;9.998;2023-05-07T08:22:52;8.93;;;8.32;;
16634;SDS011;8431;52.458;9.998;2023-05-07T08:25:19;9.80;;;9.10;;
16634;SDS011;8431;52.458;9.998;2023-05-07T08:27:48;10.15;;;9.50;;
16634;SDS011;8431;52.458;9.998;2023-05-07T08:30:32;10.88;;;9.98;;
16634;SDS011;8431;52.458;9.998;2023-05-07T08:33:11;10.57;;;9.88;;
16634;SDS011;8431;52.458;9.998;2023-05-07T08:35:38;10.20;;;9.50;;
16634;SDS011;8431;52.458;9.998;2023-05-07T08:38:05;11.63;;;10.60;;
16634;SDS011;8431;52.458;9.998;2023-05-07T08:40:33;10.50;;;9.77;;
16634;SDS011;8431;52.458;9.998;2023-05-07T08:43:04;10.93;;;10.02;;
16634;SDS011;8431;52.458;9.998;2023-05-07T08:45:32;11.10;;;10.30;;
16634;SDS011;8431;52.458;9.998;2023-05-07T08:48:08;9.95;;;9.35;;
16634;SDS011;8431;52.458;9.998;2023-05-07T08:50:42;10.13;;;9.48;;
16634;SDS011;8431;52.458;9.998;2023-05-07T08:53:10;10.07;;;9.38;;
16634;SDS011;8431;52.458;9.998;2023-05-07T08:55:37;10.77;;;10.00;;
16634;SDS011;8431;52.458;9.998;2023-05-07T08:58:04;10.20;;;9.57;;
16634;SDS011;8431;52.458;9.998;2023-05-07T09:00:32;10.63;;;9.93;;
16634;SDS011;8431;52.458;9.998;2023-05-07T09:02:59;9.50;;;8.90;;
16634;SDS011;8431;52.458;9.998;2023-05-07T09:05:26;9.48;;;8.77;;
16634;SDS011;8431;52.458;9.998;2023-05-07T09:07:55;9.80;;;9.05;;
16634;SDS011;8431;52.458;9.998;2023-05-07T09:10:25;9.85;;;9.13;;
16634;SDS011;8431;52.458;9.998;2023-05-07T09:12:52;10.73;;;10.02;;
16634;SDS011;8431;52.458;9.998;2023-05-07T09:15:19;10.18;;;9.38;;
16634;SDS011;8431;52.458;9.998;2023-05-07T09:17:47;11.02;;;10.32;;
16634;SDS011;8431;52.458;9.998;2023-05-07T09:20:14;11.27;;;10.48;;
16634;SDS011;8431;52.458;9.998;2023-05-07T09:22:42;10.27;;;9.48;;
16634;SDS011;8431;52.458;9.998;2023-05-07T09:25:11;9.82;;;9.23;;
16634;SDS011;8431;52.458;9.998;2023-05-07T09:27:41;9.75;;;9.13;;
16634;SDS011;8431;52.458;9.998;2023-05-07T09:30:09;11.18;;;10.45;;
16634;SDS011;8431;52.458;9.998;2023-05-07T09:32:38;10.48;;;9.70;;
16634;SDS011;8431;52.458;9.998;2023-05-07T09:35:05;11.43;;;10.60;;
16634;SDS011;8431;52.458;9.998;2023-05-07T09:37:40;11.88;;;11.18;;
16634;SDS011;8431;52.458;9.998;2023-05-07T09:40:08;11.57;;;10.88;;
16634;SDS011;8431;52.458;9.998;2023-05-07T09:42:47;12.18;;;11.45;;
16634;SDS011;8431;52.458;9.998;2023-05-07T09:45:14;11.65;;;10.95;;
16634;SDS011;8431;52.458;9.998;2023-05-07T09:47:42;11.85;;;10.82;;
16634;SDS011;8431;52.458;9.998;2023-05-07T09:50:10;12.70;;;11.93;;
16634;SDS011;8431;52.458;9.998;2023-05-07T09:52:40;12.13;;;11.43;;
16634;SDS011;8431;52.458;9.998;2023-05-07T09:55:10;12.55;;;11.75;;
16634;SDS011;8431;52.458;9.998;2023-05-07T09:57:37;12.15;;;11.45;;
16634;SDS011;8431;52.458;9.998;2023-05-07T10:00:08;12.60;;;11.80;;
16634;SDS011;8431;52.458;9.998;2023-05-07T10:02:37;13.05;;;12.25;;
16634;SDS011;8431;52.458;9.998;2023-05-07T10:05:11;13.63;;;12.80;;
16634;SDS011;8431;52.458;9.998;2023-05-07T10:07:40;13.07;;;12.27;;
16634;SDS011;8431;52.458;9.998;2023-05-07T10:10:07;12.82;;;12.13;;
16634;SDS011;8431;52.458;9.998;2023-05-07T10:12:35;13.05;;;12.15;;
16634;SDS011;8431;52.458;9.998;2023-05-07T10:15:07;11.38;;;10.68;;
16634;SDS011;8431;52.458;9.998;2023-05-07T10:17:43;13.07;;;12.27;;
16634;SDS011;8431;52.458;9.998;2023-05-07T10:20:14;13.82;;;12.68;;
16634;SDS011;8431;52.458;9.998;2023-05-07T10:22:43;13.80;;;13.00;;
16634;SDS011;8431;52.458;9.998;2023-05-07T10:25:14;14.10;;;13.10;;
16634;SDS011;8431;52.458;9.998;2023-05-07T10:27:43;14.75;;;13.82;;
16634;SDS011;8431;52.458;9.998;2023-05-07T10:30:16;14.57;;;13.68;;
16634;SDS011;8431;52.458;9.998;2023-05-07T10:32:53;13.07;;;12.27;;
16634;SDS011;8431;52.458;9.998;2023-05-07T10:35:31;12.68;;;11.88;;
16634;SDS011;8431;52.458;9.998;2023-05-07T10:38:02;13.80;;;12.90;;
16634;SDS011;8431;52.458;9.998;2023-05-07T10:40:30;13.95;;;12.82;;
16634;SDS011;8431;52.458;9.998;2023-05-07T10:42:57;12.10;;;11.30;;
16634;SDS011;8431;52.458;9.998;2023-05-07T10:45:27;12.48;;;11.68;;
16634;SDS011;8431;52.458;9.998;2023-05-07T10:48:07;13.35;;;12.55;;
16634;SDS011;8431;52.458;9.998;2023-05-07T10:50:36;12.90;;;12.20;;
16634;SDS011;8431;52.458;9.998;2023-05-07T10:55:51;10.27;;;9.68;;
16634;SDS011;8431;52.458;9.998;2023-05-07T10:58:38;12.18;;;11.32;;
16634;SDS011;8431;52.458;9.998;2023-05-07T11:01:07;11.27;;;10.68;;
16634;SDS011;8431;52.458;9.998;2023-05-07T11:03:36;11.23;;;10.63;;
16634;SDS011;8431;52.458;9.998;2023-05-07T11:06:38;11.45;;;10.85;;
16634;SDS011;8431;52.458;9.998;2023-05-07T11:09:06;10.90;;;10.30;;
16634;SDS011;8431;52.458;9.998;2023-05-07T11:17:15;11.75;;;11.05;;
16634;SDS011;8431;52.458;9.998;2023-05-07T11:19:48;12.07;;;11.38;;
16634;SDS011;8431;52.458;9.998;2023-05-07T11:22:35;11.40;;;10.55;;
16634;SDS011;8431;52.458;9.998;2023-05-07T11:25:08;10.45;;;9.95;;
16634;SDS011;8431;52.458;9.998;2023-05-07T11:27:54;10.98;;;10.38;;
16634;SDS011;8431;52.458;9.998;2023-05-07T11:30:23;12.10;;;11.40;;
16634;SDS011;8431;52.458;9.998;2023-05-07T11:32:52;11.43;;;10.73;;
16634;SDS011;8431;52.458;9.998;2023-05-07T11:35:20;12.25;;;11.45;;
16634;SDS011;8431;52.458;9.998;2023-05-07T11:37:50;13.27;;;12.10;;
16634;SDS011;8431;52.458;9.998;2023-05-07T11:40:24;11.93;;;11.23;;
16634;SDS011;8431;52.458;9.998;2023-05-07T11:42:51;11.50;;;10.82;;
16634;SDS011;8431;52.458;9.998;2023-05-07T11:45:22;12.05;;;11.25;;
16634;SDS011;8431;52.458;9.998;2023-05-07T11:47:53;12.18;;;11.45;;
16634;SDS011;8431;52.458;9.998;2023-05-07T11:52:52;11.38;;;10.68;;
16634;SDS011;8431;52.458;9.998;2023-05-07T11:55:20;11.35;;;10.65;;
16634;SDS011;8431;52.458;9.998;2023-05-07T11:57:49;11.18;;;10.52;;
16634;SDS011;8431;52.458;9.998;2023-05-07T12:00:17;10.82;;;10.13;;
16634;SDS011;8431;52.458;9.998;2023-05-07T12:02:44;11.35;;;10.75;;
16634;SDS011;8431;52.458;9.998;2023-05-07T12:05:13;10.98;;;10.38;;
16634;SDS011;8431;52.458;9.998;2023-05-07T12:07:40;11.48;;;10.88;;
16634;SDS011;8431;52.458;9.998;2023-05-07T12:10:08;11.30;;;10.65;;
16634;SDS011;8431;52.458;9.998;2023-05-07T12:12:40;10.88;;;10.38;;
16634;SDS011;8431;52.458;9.998;2023-05-07T12:15:08;10.38;;;9.70;;
16634;SDS011;8431;52.458;9.998;2023-05-07T12:17:36;11.18;;;10.57;;
16634;SDS011;8431;52.458;9.998;2023-05-07T12:20:04;10.70;;;9.88;;
16634;SDS011;8431;52.458;9.998;2023-05-07T12:22:34;10.77;;;10.18;;
16634;SDS011;8431;52.458;9.998;2023-05-07T12:25:02;10.45;;;9.85;;
16634;SDS011;8431;52.458;9.998;2023-05-07T12:27:29;10.25;;;9.75;;
16634;SDS011;8431;52.458;9.998;2023-05-07T12:29:57;11.18;;;10.25;;
16634;SDS011;8431;52.458;9.998;2023-05-07T12:35:11;10.43;;;9.82;;
16634;SDS011;8431;52.458;9.998;2023-05-07T12:37:39;9.57;;;8.98;;
16634;SDS011;8431;52.458;9.998;2023-05-07T12:40:35;10.32;;;9.77;;
16634;SDS011;8431;52.458;9.998;2023-05-07T12:43:04;9.55;;;9.02;;
16634;SDS011;8431;52.458;9.998;2023-05-07T12:45:31;10.35;;;9.85;;
16634;SDS011;8431;52.458;9.998;2023-05-07T12:48:09;10.13;;;9.63;;
16634;SDS011;8431;52.458;9.998;2023-05-07T12:50:36;10.45;;;9.88;;
16634;SDS011;8431;52.458;9.998;2023-05-07T12:53:05;11.13;;;10.40;;
16634;SDS011;8431;52.458;9.998;2023-05-07T12:55:54;11.95;;;11.25;;
16634;SDS011;8431;52.458;9.998;2023-05-07T12:58:40;11.18;;;10.57;;
16634;SDS011;8431;52.458;9.998;2023-05-07T13:01:29;11.15;;;10.32;;
16634;SDS011;8431;52.458;9.998;2023-05-07T13:04:15;11.50;;;10.60;;
16634;SDS011;8431;52.458;9.998;2023-05-07T13:07:01;11.35;;;10.75;;
16634;SDS011;8431;52.458;9.998;2023-05-07T13:09:49;10.77;;;10.13;;
16634;SDS011;8431;52.458;9.998;2023-05-07T13:12:35;11.05;;;10.45;;
16634;SDS011;8431;52.458;9.998;2023-05-07T13:15:22;10.80;;;10.20;;
16634;SDS011;8431;52.458;9.998;2023-05-07T13:17:49;10.77;;;10.18;;
16634;SDS011;8431;52.458;9.998;2023-05-07T13:20:16;11.02;;;10.35;;
16634;SDS011;8431;52.458;9.998;2023-05-07T13:22:43;11.95;;;11.25;;
16634;SDS011;8431;52.458;9.998;2023-05-07T13:25:12;12.23;;;11.52;;
16634;SDS011;8431;52.458;9.998;2023-05-07T13:30:23;11.23;;;10.52;;
16634;SDS011;8431;52.458;9.998;2023-05-07T13:32:55;11.48;;;10.88;;
16634;SDS011;8431;52.458;9.998;2023-05-07T13:35:22;11.90;;;11.05;;
16634;SDS011;8431;52.458;9.998;2023-05-07T13:37:49;11.68;;;10.98;;
16634;SDS011;8431;52.458;9.998;2023-05-07T13:40:18;11.43;;;10.75;;
16634;SDS011;8431;52.458;9.998;2023-05-07T13:42:45;11.32;;;10.63;;
16634;SDS011;8431;52.458;9.998;2023-05-07T13:45:15;10.77;;;10.07;;
16634;SDS011;8431;52.458;9.998;2023-05-07T13:50:29;10.48;;;9.82;;
16634;SDS011;8431;52.458;9.998;2023-05-07T13:53:02;10.63;;;10.00;;
16634;SDS011;8431;52.458;9.998;2023-05-07T13:55:31;10.48;;;9.88;;
16634;SDS011;8431;52.458;9.998;2023-05-07T13:58:01;10.57;;;9.90;;
16634;SDS011;8431;52.458;9.998;2023-05-07T14:00:29;11.63;;;10.88;;
16634;SDS011;8431;52.458;9.998;2023-05-07T14:02:56;11.15;;;10.45;;
16634;SDS011;8431;52.458;9.998;2023-05-07T14:05:23;10.73;;;10.02;;
16634;SDS011;8431;52.458;9.998;2023-05-07T14:07:51;10.50;;;9.50;;
16634;SDS011;8431;52.458;9.998;2023-05-07T14:10:18;11.25;;;10.57;;
16634;SDS011;8431;52.458;9.998;2023-05-07T14:12:47;10.30;;;9.70;;
16634;SDS011;8431;52.458;9.998;2023-05-07T14:15:14;10.95;;;10.35;;
16634;SDS011;8431;52.458;9.998;2023-05-07T14:17:42;12.10;;;11.40;;
16634;SDS011;8431;52.458;9.998;2023-05-07T14:20:10;15.30;;;10.40;;
16634;SDS011;8431;52.458;9.998;2023-05-07T14:22:38;10.88;;;10.25;;
16634;SDS011;8431;52.458;9.998;2023-05-07T14:25:24;9.93;;;9.35;;
16634;SDS011;8431;52.458;9.998;2023-05-07T14:28:11;11.32;;;9.98;;
16634;SDS011;8431;52.458;9.998;2023-05-07T14:30:56;10.30;;;9.70;;
16634;SDS011;8431;52.458;9.998;2023-05-07T14:33:42;9.60;;;9.05;;
16634;SDS011;8431;52.458;9.998;2023-05-07T14:36:28;11.75;;;10.98;;
16634;SDS011;8431;52.458;9.998;2023-05-07T14:39:15;11.73;;;11.05;;
16634;SDS011;8431;52.458;9.998;2023-05-07T14:42:00;10.13;;;9.63;;
16634;SDS011;8431;52.458;9.998;2023-05-07T14:44:47;11.38;;;10.77;;
16634;SDS011;8431;52.458;9.998;2023-05-07T14:47:33;10.70;;;10.10;;
16634;SDS011;8431;52.458;9.998;2023-05-07T14:50:19;10.90;;;10.27;;
16634;SDS011;8431;52.458;9.998;2023-05-07T14:52:52;9.95;;;9.40;;
16634;SDS011;8431;52.458;9.998;2023-05-07T14:55:20;10.48;;;9.77;;
16634;SDS011;8431;52.458;9.998;2023-05-07T14:57:47;9.90;;;9.30;;
16634;SDS011;8431;52.458;9.998;2023-05-07T15:00:16;10.75;;;10.15;;
16634;SDS011;8431;52.458;9.998;2023-05-07T15:02:43;9.68;;;9.07;;
16634;SDS011;8431;52.458;9.998;2023-05-07T15:05:10;11.27;;;10.57;;
16634;SDS011;8431;52.458;9.998;2023-05-07T15:07:37;11.65;;;10.90;;
16634;SDS011;8431;52.458;9.998;2023-05-07T15:10:04;10.57;;;9.98;;
16634;SDS011;8431;52.458;9.998;2023-05-07T15:12:33;12.45;;;11.75;;